aviador You're here:

GMAG Decoded Metar

in
Report Time2017-12-16 16:00:00
UTC Time2017-12-16 16:39:40
Flight Rules vfr VFR
Wind360° at 10 kt
W.Decomp.*RWY 05: 6.4 kt HW 7.7 kt LCW
Visibility9999 m
Phenomena:N/A
Clouds:Scattered 016 Hf
Expected CloudBase > 1,600 ft AGL from Temp-Dew spread
CeilingNone
Temp18°C
Dew Point14°C (78% RH)
AAT15.7°C
QNH1017 hPa
Raw Report
METAR GMAG 161600Z 36010KT 9999 SCT016 18/14 Q1017 NOSIG=

Extra information for GMAG:More info

Social comments